createdAt,value
2023-01-19T00:01:56.861Z,5.06
2023-01-19T00:04:27.708Z,5.07
2023-01-19T00:06:58.113Z,5.07
2023-01-19T00:09:33.482Z,5.07
2023-01-19T00:12:04.007Z,5.05
2023-01-19T00:14:34.669Z,5.03
2023-01-19T00:17:05.098Z,5.02
2023-01-19T00:19:35.507Z,4.97
2023-01-19T00:22:06.566Z,4.92
2023-01-19T00:24:37.231Z,4.87
2023-01-19T00:27:07.745Z,4.80
2023-01-19T00:29:38.189Z,4.75
2023-01-19T00:32:09.265Z,4.72
2023-01-19T00:34:42.764Z,4.70
2023-01-19T00:37:13.261Z,4.69
2023-01-19T00:39:43.957Z,4.69
2023-01-19T00:42:32.733Z,4.67
2023-01-19T00:45:03.162Z,4.65
2023-01-19T00:47:33.563Z,4.63
2023-01-19T00:50:04.521Z,4.66
2023-01-19T00:52:35.200Z,4.68
2023-01-19T00:55:06.759Z,4.72
2023-01-19T00:57:37.251Z,4.74
2023-01-19T01:00:11.694Z,4.76
2023-01-19T01:02:44.391Z,4.78
2023-01-19T01:05:15.935Z,4.80
2023-01-19T01:07:49.618Z,4.80
2023-01-19T01:10:22.788Z,4.76
2023-01-19T01:12:57.590Z,4.73
2023-01-19T01:15:44.131Z,4.67
2023-01-19T01:18:14.593Z,4.63
2023-01-19T01:20:45.038Z,4.61
2023-01-19T01:23:16.127Z,4.62
2023-01-19T01:25:46.667Z,4.65
2023-01-19T01:28:17.086Z,4.59
2023-01-19T01:30:47.566Z,4.57
2023-01-19T01:33:40.009Z,4.58
2023-01-19T01:36:10.280Z,4.58
2023-01-19T01:38:40.774Z,4.59
2023-01-19T01:41:11.833Z,4.60
2023-01-19T01:43:47.731Z,4.62
2023-01-19T01:46:20.022Z,4.62
2023-01-19T01:48:52.551Z,4.63
2023-01-19T01:51:29.096Z,4.61
2023-01-19T01:54:07.815Z,4.58
2023-01-19T01:56:38.901Z,4.55
2023-01-19T01:59:13.163Z,4.53
2023-01-19T02:02:01.145Z,4.53
2023-01-19T02:04:32.693Z,4.52
2023-01-19T02:07:20.833Z,4.59
2023-01-19T02:10:09.854Z,4.63
2023-01-19T02:12:58.488Z,4.67
2023-01-19T02:15:29.218Z,4.73
2023-01-19T02:17:59.741Z,4.75
2023-01-19T02:20:32.744Z,4.76
2023-01-19T02:23:08.444Z,4.76
2023-01-19T02:25:40.638Z,4.75
2023-01-19T02:28:11.914Z,4.74
2023-01-19T02:30:43.733Z,4.73
2023-01-19T02:33:14.187Z,4.68
2023-01-19T02:35:45.857Z,4.63
2023-01-19T02:38:19.025Z,4.62
2023-01-19T02:40:50.856Z,4.63
2023-01-19T02:43:23.641Z,4.65
2023-01-19T02:45:54.631Z,4.65
2023-01-19T02:48:25.499Z,4.65
2023-01-19T02:51:00.963Z,4.62
2023-01-19T02:53:54.329Z,4.61
2023-01-19T02:56:39.709Z,4.61
2023-01-19T02:59:24.479Z,4.58
2023-01-19T03:02:11.917Z,4.56
2023-01-19T03:04:56.478Z,4.49
2023-01-19T03:07:38.157Z,4.36
2023-01-19T03:10:16.746Z,4.32
2023-01-19T03:12:51.881Z,4.28
2023-01-19T03:15:28.652Z,4.23
2023-01-19T03:18:01.992Z,4.19
2023-01-19T03:20:33.278Z,4.18
2023-01-19T03:23:08.276Z,4.14
2023-01-19T03:25:43.610Z,4.09
2023-01-19T03:28:17.959Z,4.10
2023-01-19T03:30:57.786Z,4.17
2023-01-19T03:33:33.248Z,4.24
2023-01-19T03:36:09.677Z,4.30
2023-01-19T03:38:42.980Z,4.35
2023-01-19T03:41:16.769Z,4.38
2023-01-19T03:43:50.461Z,4.40
2023-01-19T03:46:22.868Z,4.42
2023-01-19T03:48:52.351Z,4.47
2023-01-19T03:51:23.718Z,4.47
2023-01-19T03:53:54.160Z,4.41
2023-01-19T03:56:26.532Z,4.33
2023-01-19T03:58:56.354Z,4.19
2023-01-19T04:01:27.632Z,4.08
2023-01-19T04:03:58.232Z,4.06
2023-01-19T04:06:28.725Z,4.05
2023-01-19T04:08:59.169Z,4.01
2023-01-19T04:11:29.701Z,3.93
2023-01-19T04:14:00.422Z,3.82
2023-01-19T04:16:30.856Z,3.73
2023-01-19T04:19:01.272Z,3.80
2023-01-19T04:21:31.688Z,3.87
2023-01-19T04:24:02.129Z,3.92
2023-01-19T04:26:32.597Z,3.95
2023-01-19T04:29:03.032Z,3.91
2023-01-19T04:31:35.644Z,3.92
2023-01-19T04:34:06.252Z,3.93
2023-01-19T04:36:36.677Z,3.93
2023-01-19T04:39:09.014Z,3.98
2023-01-19T04:41:39.616Z,3.98
2023-01-19T04:44:10.208Z,3.93
2023-01-19T04:46:40.668Z,3.95
2023-01-19T04:49:11.530Z,3.96
2023-01-19T04:51:42.083Z,3.96
2023-01-19T04:54:12.614Z,3.94
2023-01-19T04:56:43.072Z,3.94
2023-01-19T04:59:13.957Z,3.95
2023-01-19T05:01:44.432Z,3.98
2023-01-19T05:04:15.020Z,4.07
2023-01-19T05:06:45.545Z,4.14
2023-01-19T05:09:16.608Z,4.09
2023-01-19T05:11:47.293Z,4.10
2023-01-19T05:14:17.752Z,4.10
2023-01-19T05:16:48.217Z,4.12
2023-01-19T05:19:18.638Z,4.15
2023-01-19T05:21:49.251Z,4.18
2023-01-19T05:24:20.285Z,4.18
2023-01-19T05:26:50.694Z,4.18
2023-01-19T05:29:21.179Z,4.10
2023-01-19T05:31:51.688Z,4.05
2023-01-19T05:34:22.482Z,3.95
2023-01-19T05:36:53.435Z,3.88
2023-01-19T05:39:23.900Z,3.80
2023-01-19T05:41:54.362Z,3.75
2023-01-19T05:44:24.804Z,3.71
2023-01-19T05:46:55.610Z,3.69
2023-01-19T05:49:26.171Z,3.67
2023-01-19T05:51:56.574Z,3.71
2023-01-19T05:54:27.000Z,3.73
2023-01-19T05:56:57.774Z,3.73
2023-01-19T05:59:28.299Z,3.71
2023-01-19T06:02:00.081Z,3.70
2023-01-19T06:04:30.684Z,3.70
2023-01-19T06:07:02.268Z,3.71
2023-01-19T06:09:32.763Z,3.65
2023-01-19T06:12:03.294Z,3.63
2023-01-19T06:14:36.991Z,3.62
2023-01-19T06:17:07.977Z,3.62
2023-01-19T06:19:38.440Z,3.61
2023-01-19T06:22:08.960Z,3.58
2023-01-19T06:24:39.866Z,3.58
2023-01-19T06:27:11.232Z,3.53
2023-01-19T06:29:41.749Z,3.50
2023-01-19T06:32:12.171Z,3.53
2023-01-19T06:34:43.856Z,3.54
2023-01-19T06:37:16.188Z,3.58
2023-01-19T06:39:46.641Z,3.62
2023-01-19T06:42:17.071Z,3.65
2023-01-19T06:44:48.187Z,3.68
2023-01-19T06:47:19.341Z,3.67
2023-01-19T06:49:50.066Z,3.61
2023-01-19T06:52:20.809Z,3.59
2023-01-19T06:54:51.243Z,3.54
2023-01-19T06:57:21.667Z,3.48
2023-01-19T06:59:52.281Z,3.46
2023-01-19T07:02:26.929Z,3.45
2023-01-19T07:04:58.505Z,3.43
2023-01-19T07:07:29.302Z,3.43
2023-01-19T07:09:59.779Z,3.41
2023-01-19T07:12:31.406Z,3.34
2023-01-19T07:15:02.113Z,3.34
2023-01-19T07:17:32.645Z,3.29
2023-01-19T07:20:03.132Z,3.20
2023-01-19T07:22:33.704Z,3.17
2023-01-19T07:25:04.868Z,3.20
2023-01-19T07:27:35.307Z,3.21
2023-01-19T07:30:07.271Z,3.26
2023-01-19T07:32:38.098Z,3.33
2023-01-19T07:35:09.966Z,3.35
2023-01-19T07:37:40.394Z,3.34
2023-01-19T07:40:12.983Z,3.32
2023-01-19T07:42:48.801Z,3.34
2023-01-19T07:45:20.416Z,3.37
2023-01-19T07:47:51.804Z,3.40
2023-01-19T07:50:25.507Z,3.43
2023-01-19T07:52:55.977Z,3.43
2023-01-19T07:55:26.749Z,3.44
2023-01-19T07:57:57.392Z,3.44
2023-01-19T08:00:28.241Z,3.43
2023-01-19T08:03:02.351Z,3.37
2023-01-19T08:05:34.144Z,3.33
2023-01-19T08:08:05.584Z,3.29
2023-01-19T08:10:36.332Z,3.29
2023-01-19T08:13:06.806Z,3.28
2023-01-19T08:15:37.723Z,3.28
2023-01-19T08:18:09.789Z,3.27
2023-01-19T08:20:40.310Z,3.25
2023-01-19T08:23:11.616Z,3.23
2023-01-19T08:25:45.046Z,3.19
2023-01-19T08:28:17.124Z,3.16
2023-01-19T08:30:54.154Z,3.11
2023-01-19T08:33:26.103Z,3.06
2023-01-19T08:35:56.653Z,3.03
2023-01-19T08:38:27.085Z,3.01
2023-01-19T08:40:57.553Z,3.00
2023-01-19T08:43:28.036Z,2.98
2023-01-19T08:45:58.796Z,3.02
2023-01-19T08:48:29.442Z,3.04
2023-01-19T08:51:00.369Z,3.07
2023-01-19T08:53:30.987Z,3.08
2023-01-19T08:56:02.312Z,3.06
2023-01-19T08:58:32.735Z,3.05
2023-01-19T09:01:04.243Z,3.07
2023-01-19T09:03:34.948Z,3.08
2023-01-19T09:06:08.515Z,3.04
2023-01-19T09:08:39.365Z,3.01
2023-01-19T09:11:12.763Z,3.01
2023-01-19T09:13:43.634Z,3.00
2023-01-19T09:16:15.899Z,2.99
2023-01-19T09:18:46.785Z,2.96
2023-01-19T09:21:17.208Z,2.92
2023-01-19T09:23:49.202Z,2.95
2023-01-19T09:26:19.743Z,2.99
2023-01-19T09:28:50.218Z,2.99
2023-01-19T09:31:20.814Z,2.95
2023-01-19T09:33:51.446Z,2.91
2023-01-19T09:36:21.962Z,2.90
2023-01-19T09:38:52.393Z,2.90
2023-01-19T09:41:26.102Z,2.91
2023-01-19T09:44:00.388Z,2.90
2023-01-19T09:46:36.932Z,2.88
2023-01-19T09:49:12.926Z,2.83
2023-01-19T09:51:46.058Z,2.83
2023-01-19T09:54:19.003Z,2.87
2023-01-19T09:56:52.839Z,2.89
2023-01-19T09:59:26.122Z,2.95
2023-01-19T10:02:08.819Z,3.00
2023-01-19T10:04:42.788Z,3.01
2023-01-19T10:07:22.675Z,3.01
2023-01-19T10:10:05.919Z,3.04
2023-01-19T10:12:59.672Z,3.11
2023-01-19T10:15:43.229Z,3.20
2023-01-19T10:18:20.808Z,3.24
2023-01-19T10:20:55.483Z,3.28
2023-01-19T10:23:41.750Z,3.33
2023-01-19T10:26:17.511Z,3.35
2023-01-19T10:28:50.919Z,3.36
2023-01-19T10:31:24.680Z,3.42
2023-01-19T10:33:55.513Z,3.50
2023-01-19T10:36:30.545Z,3.59
2023-01-19T10:39:00.959Z,3.65
2023-01-19T10:41:40.450Z,3.68
2023-01-19T10:44:12.124Z,3.71
2023-01-19T10:46:45.707Z,3.71
2023-01-19T10:49:30.096Z,3.75
2023-01-19T10:52:01.665Z,3.79
2023-01-19T10:54:36.336Z,3.83
2023-01-19T10:57:10.770Z,3.89
2023-01-19T10:59:51.015Z,3.97
2023-01-19T11:02:26.704Z,4.02
2023-01-19T11:04:59.482Z,4.08
2023-01-19T11:07:33.304Z,4.14
2023-01-19T11:10:24.401Z,4.22
2023-01-19T11:13:07.700Z,4.27
2023-01-19T11:15:45.093Z,4.36
2023-01-19T11:18:28.532Z,4.45
2023-01-19T11:21:02.289Z,4.49
2023-01-19T11:23:37.659Z,4.51
2023-01-19T11:26:09.415Z,4.54
2023-01-19T11:28:46.540Z,4.58
2023-01-19T11:31:33.858Z,4.67
2023-01-19T11:34:07.154Z,4.74
2023-01-19T11:36:38.477Z,4.83
2023-01-19T11:39:26.499Z,4.93
2023-01-19T11:41:59.792Z,5.04
2023-01-19T11:44:33.660Z,5.18
2023-01-19T11:47:07.044Z,5.31
2023-01-19T11:49:47.762Z,5.43
2023-01-19T11:52:26.951Z,5.55
2023-01-19T11:55:03.275Z,5.67
2023-01-19T11:57:33.949Z,5.75
2023-01-19T12:00:25.428Z,5.81
2023-01-19T12:03:02.059Z,5.78
2023-01-19T12:05:40.447Z,5.83
2023-01-19T12:08:16.779Z,5.91
2023-01-19T12:10:50.305Z,5.98
2023-01-19T12:13:26.462Z,5.98
2023-01-19T12:16:01.251Z,6.01
2023-01-19T12:18:38.060Z,6.02
2023-01-19T12:21:08.719Z,6.08
2023-01-19T12:23:51.920Z,6.11
2023-01-19T12:26:33.199Z,6.14
2023-01-19T12:29:12.712Z,6.16
2023-01-19T12:31:44.227Z,6.18
2023-01-19T12:34:43.421Z,6.26
2023-01-19T12:37:33.459Z,6.39
2023-01-19T12:40:18.559Z,6.55
2023-01-19T12:42:52.958Z,6.64
2023-01-19T12:45:26.613Z,6.71
2023-01-19T12:47:58.116Z,6.79
2023-01-19T12:50:32.235Z,6.86
2023-01-19T12:53:08.284Z,6.95
2023-01-19T12:55:46.863Z,7.03
2023-01-19T12:58:22.701Z,7.12
2023-01-19T13:01:18.381Z,7.24
2023-01-19T13:04:01.994Z,7.35
2023-01-19T13:07:11.005Z,7.42
2023-01-19T13:09:43.287Z,7.48
2023-01-19T13:12:29.031Z,7.52
2023-01-19T13:15:34.957Z,7.55
2023-01-19T13:18:06.163Z,7.52
2023-01-19T13:20:49.146Z,7.48
2023-01-19T13:23:26.045Z,7.44
2023-01-19T13:26:05.018Z,7.49
2023-01-19T13:28:41.099Z,7.53
2023-01-19T13:31:13.147Z,7.60
2023-01-19T13:33:50.227Z,7.66
2023-01-19T13:36:26.796Z,7.73
2023-01-19T13:38:59.136Z,7.73
2023-01-19T13:41:32.999Z,7.64
2023-01-19T13:44:08.614Z,7.57
2023-01-19T13:46:40.695Z,7.55
2023-01-19T13:49:16.010Z,7.54
2023-01-19T13:51:48.294Z,7.48
2023-01-19T13:54:21.358Z,7.49
2023-01-19T13:56:51.891Z,7.51
2023-01-19T13:59:22.305Z,7.55
2023-01-19T14:01:54.367Z,7.60
2023-01-19T14:04:30.543Z,7.63
2023-01-19T14:07:04.651Z,7.62
2023-01-19T14:09:35.081Z,7.63
2023-01-19T14:12:12.981Z,7.60
2023-01-19T14:14:46.838Z,7.55
2023-01-19T14:17:28.794Z,7.43
2023-01-19T14:20:01.087Z,7.27
2023-01-19T14:22:43.584Z,7.14
2023-01-19T14:25:32.350Z,7.03
2023-01-19T14:28:39.311Z,6.92
2023-01-19T14:31:23.052Z,6.79
2023-01-19T14:33:55.256Z,6.66
2023-01-19T14:36:40.317Z,6.53
2023-01-19T14:39:23.426Z,6.40
2023-01-19T14:41:56.176Z,6.25
2023-01-19T14:44:30.697Z,6.12
2023-01-19T14:47:02.186Z,6.02
2023-01-19T14:49:36.448Z,5.92
2023-01-19T14:52:18.465Z,5.83
2023-01-19T14:54:50.358Z,5.74
2023-01-19T14:57:20.960Z,5.67
2023-01-19T14:59:52.415Z,5.58
2023-01-19T15:02:22.976Z,5.49
2023-01-19T15:04:55.424Z,5.42
2023-01-19T15:07:26.771Z,5.34
2023-01-19T15:09:57.272Z,5.27
2023-01-19T15:12:30.568Z,5.19
2023-01-19T15:15:02.299Z,5.13
2023-01-19T15:17:34.137Z,5.06
2023-01-19T15:20:04.847Z,5.00
2023-01-19T15:22:35.780Z,4.94
2023-01-19T15:25:07.904Z,4.87
2023-01-19T15:27:38.446Z,4.77
2023-01-19T15:30:16.947Z,4.71
2023-01-19T15:32:47.920Z,4.63
2023-01-19T15:35:20.987Z,4.57
2023-01-19T15:37:51.763Z,4.51
2023-01-19T15:40:23.433Z,4.46
2023-01-19T15:42:53.899Z,4.41
2023-01-19T15:45:39.365Z,4.37
2023-01-19T15:48:12.063Z,4.33
2023-01-19T15:50:44.507Z,4.28
2023-01-19T15:53:18.385Z,4.23
2023-01-19T15:55:52.313Z,4.19
2023-01-19T15:58:23.549Z,4.14
2023-01-19T16:00:57.933Z,4.12
2023-01-19T16:03:28.843Z,4.10
2023-01-19T16:06:02.289Z,4.08
2023-01-19T16:08:32.828Z,4.06
2023-01-19T16:11:08.576Z,4.02
2023-01-19T16:13:39.327Z,3.96
2023-01-19T16:16:16.024Z,3.90
2023-01-19T16:18:46.536Z,3.84
2023-01-19T16:21:17.369Z,3.76
2023-01-19T16:23:48.023Z,3.70
2023-01-19T16:26:29.079Z,3.66
2023-01-19T16:29:02.129Z,3.64
2023-01-19T16:31:32.618Z,3.58
2023-01-19T16:34:03.200Z,3.54
2023-01-19T16:36:35.264Z,3.49
2023-01-19T16:39:07.877Z,3.45
2023-01-19T16:41:39.196Z,3.42
2023-01-19T16:44:11.377Z,3.39
2023-01-19T16:46:43.845Z,3.34
2023-01-19T16:49:14.585Z,3.29
2023-01-19T16:51:45.754Z,3.23
2023-01-19T16:54:17.631Z,3.20
2023-01-19T16:56:48.430Z,3.19
2023-01-19T16:59:21.048Z,3.17
2023-01-19T17:01:52.222Z,3.14
2023-01-19T17:04:23.908Z,3.14
2023-01-19T17:06:54.403Z,3.13
2023-01-19T17:09:24.876Z,3.11
2023-01-19T17:11:55.366Z,3.09
2023-01-19T17:14:26.026Z,3.06
2023-01-19T17:16:56.498Z,3.05
2023-01-19T17:19:29.784Z,3.03
2023-01-19T17:22:00.178Z,3.02
2023-01-19T17:24:30.648Z,2.98
2023-01-19T17:27:01.251Z,2.94
2023-01-19T17:29:34.836Z,2.93
2023-01-19T17:32:05.656Z,2.92
2023-01-19T17:34:36.204Z,2.91
2023-01-19T17:37:06.736Z,2.89
2023-01-19T17:39:37.511Z,2.87
2023-01-19T17:42:08.075Z,2.85
2023-01-19T17:44:38.700Z,2.85
2023-01-19T17:47:09.145Z,2.84
2023-01-19T17:49:39.607Z,2.84
2023-01-19T17:52:10.382Z,2.84
2023-01-19T17:54:40.809Z,2.84
2023-01-19T17:57:11.394Z,2.81
2023-01-19T17:59:43.784Z,2.79
2023-01-19T18:02:14.453Z,2.74
2023-01-19T18:04:45.443Z,2.69
2023-01-19T18:07:15.956Z,2.65
2023-01-19T18:09:46.375Z,2.63
2023-01-19T18:12:17.127Z,2.62
2023-01-19T18:14:47.552Z,2.61
2023-01-19T18:17:18.080Z,2.60
2023-01-19T18:19:49.113Z,2.59
2023-01-19T18:22:19.513Z,2.57
2023-01-19T18:24:50.105Z,2.55
2023-01-19T18:27:21.921Z,2.52
2023-01-19T18:29:53.045Z,2.50
2023-01-19T18:32:24.240Z,2.46
2023-01-19T18:34:55.663Z,2.43
2023-01-19T18:37:26.084Z,2.38
2023-01-19T18:40:04.352Z,2.34
2023-01-19T18:42:36.054Z,2.30
2023-01-19T18:45:07.839Z,2.27
2023-01-19T18:47:38.320Z,2.24
2023-01-19T18:50:10.306Z,2.22
2023-01-19T18:52:40.760Z,2.19
2023-01-19T18:55:12.063Z,2.19
2023-01-19T18:57:42.827Z,2.17
2023-01-19T19:00:15.396Z,2.15
2023-01-19T19:02:45.973Z,2.11
2023-01-19T19:05:16.383Z,2.06
2023-01-19T19:07:46.804Z,2.03
2023-01-19T19:10:17.972Z,2.01
2023-01-19T19:12:48.959Z,2.00
2023-01-19T19:15:19.439Z,2.00
2023-01-19T19:17:50.235Z,1.99
2023-01-19T19:20:23.302Z,1.97
2023-01-19T19:22:53.806Z,1.95
2023-01-19T19:25:24.601Z,1.93
2023-01-19T19:27:55.456Z,1.91
2023-01-19T19:30:26.121Z,1.90
2023-01-19T19:32:59.874Z,1.87
2023-01-19T19:35:30.393Z,1.81
2023-01-19T19:38:01.048Z,1.75
2023-01-19T19:40:31.525Z,1.70
2023-01-19T19:43:01.935Z,1.66
2023-01-19T19:45:32.462Z,1.63
2023-01-19T19:48:02.923Z,1.62
2023-01-19T19:50:35.425Z,1.63
2023-01-19T19:53:04.324Z,1.63
2023-01-19T19:55:34.953Z,1.62
2023-01-19T19:58:05.397Z,1.63
2023-01-19T20:00:35.897Z,1.65
2023-01-19T20:03:13.404Z,1.67
2023-01-19T20:05:43.865Z,1.69
2023-01-19T20:08:14.681Z,1.70
2023-01-19T20:10:45.199Z,1.71
2023-01-19T20:13:20.005Z,1.70
2023-01-19T20:15:50.530Z,1.68
2023-01-19T20:18:21.085Z,1.68
2023-01-19T20:20:51.617Z,1.72
2023-01-19T20:23:22.113Z,1.77
2023-01-19T20:25:52.552Z,1.79
2023-01-19T20:28:22.999Z,1.82
2023-01-19T20:30:54.863Z,1.86
2023-01-19T20:33:26.169Z,1.90
2023-01-19T20:35:56.653Z,1.97
2023-01-19T20:38:27.121Z,2.03
2023-01-19T20:40:57.519Z,2.06
2023-01-19T20:43:27.981Z,2.08
2023-01-19T20:45:58.575Z,2.09
2023-01-19T20:48:30.162Z,2.08
2023-01-19T20:51:03.127Z,2.06
2023-01-19T20:53:34.854Z,2.02
2023-01-19T20:56:08.166Z,2.00
2023-01-19T20:58:39.085Z,1.98
2023-01-19T21:01:18.234Z,1.95
2023-01-19T21:03:49.675Z,1.91
2023-01-19T21:06:21.637Z,1.88
2023-01-19T21:08:52.380Z,1.85
2023-01-19T21:11:24.061Z,1.82
2023-01-19T21:13:56.691Z,1.82
2023-01-19T21:16:28.950Z,1.82
2023-01-19T21:18:59.805Z,1.80
2023-01-19T21:21:31.892Z,1.77
2023-01-19T21:24:04.369Z,1.73
2023-01-19T21:26:35.915Z,1.70
2023-01-19T21:29:06.679Z,1.68
2023-01-19T21:31:37.220Z,1.65
2023-01-19T21:34:07.882Z,1.63
2023-01-19T21:36:38.561Z,1.62
2023-01-19T21:39:10.231Z,1.63
2023-01-19T21:41:43.304Z,1.64
2023-01-19T21:44:14.808Z,1.63
2023-01-19T21:46:45.339Z,1.62
2023-01-19T21:49:19.992Z,1.60
2023-01-19T21:51:52.531Z,1.60
2023-01-19T21:54:21.562Z,1.59
2023-01-19T21:56:52.029Z,1.58
2023-01-19T21:59:22.466Z,1.57
2023-01-19T22:01:53.138Z,1.56
2023-01-19T22:04:23.991Z,1.57
2023-01-19T22:06:54.435Z,1.59
2023-01-19T22:09:24.868Z,1.60
2023-01-19T22:11:55.346Z,1.61
2023-01-19T22:14:25.969Z,1.61
2023-01-19T22:16:56.492Z,1.61
2023-01-19T22:19:27.092Z,1.60
2023-01-19T22:21:57.596Z,1.60
2023-01-19T22:24:28.147Z,1.60
2023-01-19T22:26:58.570Z,1.60
2023-01-19T22:29:29.114Z,1.59
2023-01-19T22:31:59.503Z,1.60
2023-01-19T22:34:29.998Z,1.60
2023-01-19T22:37:00.872Z,1.61
2023-01-19T22:39:31.406Z,1.62
2023-01-19T22:42:01.860Z,1.64
2023-01-19T22:44:32.319Z,1.65
2023-01-19T22:47:02.746Z,1.65
2023-01-19T22:49:33.260Z,1.65
2023-01-19T22:52:03.652Z,1.66
2023-01-19T22:54:34.418Z,1.67
2023-01-19T22:57:06.946Z,1.68
2023-01-19T22:59:35.873Z,1.70
2023-01-19T23:02:06.359Z,1.69
2023-01-19T23:04:37.234Z,1.71
2023-01-19T23:07:09.332Z,1.72
2023-01-19T23:09:40.325Z,1.73
2023-01-19T23:12:10.784Z,1.74
2023-01-19T23:14:41.380Z,1.73
2023-01-19T23:17:11.794Z,1.73
2023-01-19T23:19:42.220Z,1.74
2023-01-19T23:22:12.626Z,1.75
2023-01-19T23:24:43.151Z,1.75
2023-01-19T23:27:13.599Z,1.74
2023-01-19T23:29:44.069Z,1.74
2023-01-19T23:32:14.501Z,1.72
2023-01-19T23:34:45.107Z,1.70
2023-01-19T23:37:15.726Z,1.69
2023-01-19T23:39:46.141Z,1.68
2023-01-19T23:42:16.563Z,1.66
2023-01-19T23:44:46.972Z,1.66
2023-01-19T23:47:17.364Z,1.66
2023-01-19T23:49:47.819Z,1.67
2023-01-19T23:52:18.269Z,1.68
2023-01-19T23:54:48.746Z,1.68
2023-01-19T23:57:19.177Z,1.68
2023-01-19T23:59:49.789Z,1.67
